Time;durP1;ratioP1;P1;durP2;ratioP2;P2;SDS_P1;SDS_P2;PMS_P1;PMS_P2;Temp;Humidity;BMP_temperature;BMP_pressure;BME280_temperature;BME280_humidity;BME280_pressure;Samples;Min_cycle;Max_cycle;Signal;HPM_P1;HPM_P2
2022/06/28 00:03:42;;;;;;;2.97;2.17;;;24.00;65.00;;;;;;20820258;28;20048;-70
2022/06/28 00:13:42;;;;;;;2.70;1.85;;;24.00;65.00;;;;;;20815272;28;20041;-71
2022/06/28 00:23:43;;;;;;;3.05;1.63;;;24.00;65.00;;;;;;20833236;28;20574;-70
2022/06/28 00:33:43;;;;;;;1.90;1.40;;;23.90;65.00;;;;;;20831470;28;20116;-70
2022/06/28 00:43:44;;;;;;;3.03;1.75;;;23.90;65.00;;;;;;21262708;22;20486;-72
2022/06/28 00:53:45;;;;;;;3.00;2.20;;;23.90;65.00;;;;;;20926557;28;20032;-72
2022/06/28 01:03:45;;;;;;;3.50;1.67;;;23.90;65.10;;;;;;20946392;28;20127;-72
2022/06/28 01:13:50;;;;;;;2.58;1.60;;;23.80;65.00;;;;;;20930158;28;20029;-72
2022/06/28 01:23:51;;;;;;;3.67;1.90;;;23.80;65.10;;;;;;20952045;28;20044;-72
2022/06/28 01:34:08;;;;;;;1.95;1.50;;;23.80;65.10;;;;;;20930978;28;20037;-71
2022/06/28 01:44:09;;;;;;;1.77;1.48;;;23.70;65.10;;;;;;20914486;28;20132;-73
2022/06/28 01:54:16;;;;;;;2.10;1.70;;;23.70;65.10;;;;;;20934721;28;20509;-71
2022/06/28 02:04:19;;;;;;;2.35;1.73;;;23.70;65.10;;;;;;20934161;28;20029;-71
2022/06/28 02:14:21;;;;;;;1.50;1.40;;;23.70;65.10;;;;;;20908148;28;20066;-72
2022/06/28 02:24:22;;;;;;;2.70;1.90;;;23.60;65.00;;;;;;20929101;28;20064;-72
2022/06/28 02:44:42;;;;;;;1.90;1.60;;;23.60;65.00;;;;;;20953646;28;20478;-72
2022/06/28 02:54:42;;;;;;;2.08;1.77;;;23.60;64.90;;;;;;20946119;28;20040;-73
2022/06/28 03:04:43;;;;;;;5.13;2.13;;;23.50;64.70;;;;;;20948527;28;20059;-72
2022/06/28 03:14:43;;;;;;;2.92;2.03;;;23.50;64.60;;;;;;20943802;28;20043;-72
2022/06/28 03:24:44;;;;;;;3.50;2.38;;;23.50;64.50;;;;;;20959628;28;20051;-72
2022/06/28 03:34:46;;;;;;;3.20;2.00;;;23.50;64.40;;;;;;20942237;28;20032;-71
2022/06/28 03:44:51;;;;;;;3.97;1.65;;;23.50;64.30;;;;;;20926336;28;20041;-72
2022/06/28 03:54:52;;;;;;;3.55;2.50;;;23.50;64.20;;;;;;20925104;28;20090;-73
2022/06/28 04:05:04;;;;;;;4.78;2.97;;;23.50;64.10;;;;;;20943467;28;20040;-72
2022/06/28 04:15:05;;;;;;;5.25;2.47;;;23.40;64.00;;;;;;20943468;28;20175;-73
2022/06/28 04:25:06;;;;;;;3.30;2.42;;;23.40;64.00;;;;;;20947557;28;20040;-77
2022/06/28 04:35:14;;;;;;;3.85;3.17;;;23.40;63.90;;;;;;20917654;28;20381;-77
2022/06/28 04:45:15;;;;;;;3.80;2.90;;;23.40;63.90;;;;;;20948610;28;20173;-75
2022/06/28 04:55:30;;;;;;;;;;;23.40;63.90;;;;;;20949303;28;20031;-75
2022/06/28 05:05:39;;;;;;;4.53;2.80;;;23.40;63.90;;;;;;20918386;28;19916;-72
2022/06/28 05:15:40;;;;;;;4.28;2.63;;;23.30;63.80;;;;;;20956905;28;20032;-73
2022/06/28 05:25:45;;;;;;;4.40;3.00;;;23.30;63.70;;;;;;20952266;28;20040;-79
2022/06/28 05:35:45;;;;;;;7.07;2.72;;;23.30;63.70;;;;;;20927600;28;20033;-77
2022/06/28 05:45:46;;;;;;;6.72;2.58;;;23.30;63.60;;;;;;20959652;28;20036;-75
2022/06/28 05:55:47;;;;;;;3.55;2.65;;;23.30;63.50;;;;;;20948371;28;20031;-74
2022/06/28 06:05:47;;;;;;;4.80;2.63;;;23.20;63.30;;;;;;20982180;28;20036;-76
2022/06/28 06:15:48;;;;;;;6.68;2.22;;;23.20;63.00;;;;;;20964350;28;20481;-75
2022/06/28 06:25:49;;;;;;;4.00;2.13;;;23.20;62.80;;;;;;20976037;28;20086;-68
2022/06/28 06:35:49;;;;;;;3.37;2.37;;;23.20;62.60;;;;;;20985172;28;20717;-68
2022/06/28 06:45:51;;;;;;;4.47;2.72;;;23.20;62.50;;;;;;20949009;28;20490;-69
2022/06/28 06:55:53;;;;;;;5.93;2.42;;;23.20;62.40;;;;;;20945569;28;20032;-69
2022/06/28 07:05:54;;;;;;;3.65;2.35;;;23.20;62.30;;;;;;20927244;28;20043;-68
2022/06/28 07:15:55;;;;;;;6.53;3.50;;;23.10;62.10;;;;;;20956010;28;20032;-69
2022/06/28 07:25:56;;;;;;;3.40;2.63;;;23.10;62.00;;;;;;20960131;28;20032;-69
2022/06/28 07:35:57;;;;;;;4.80;2.33;;;23.10;61.80;;;;;;20960779;28;20027;-68
2022/06/28 07:45:58;;;;;;;4.93;2.97;;;23.10;61.70;;;;;;20916107;28;20377;-68
2022/06/28 07:55:59;;;;;;;4.00;2.35;;;23.10;61.30;;;;;;20925690;28;20025;-69
2022/06/28 08:06:08;;;;;;;2.22;1.77;;;23.10;61.10;;;;;;20945818;28;20663;-67
2022/06/28 08:16:18;;;;;;;6.63;1.77;;;23.10;60.70;;;;;;20942327;28;20055;-71
2022/06/28 08:26:18;;;;;;;2.97;1.80;;;23.10;60.40;;;;;;20955476;28;20051;-71
2022/06/28 08:36:19;;;;;;;3.92;1.40;;;23.10;60.40;;;;;;20927418;28;20037;-69
2022/06/28 08:46:20;;;;;;;5.93;1.30;;;23.10;60.20;;;;;;20953240;28;20037;-69
2022/06/28 08:56:21;;;;;;;3.33;1.67;;;23.10;59.90;;;;;;20953316;28;20376;-69
2022/06/28 09:06:23;;;;;;;3.13;1.38;;;23.10;59.50;;;;;;20912841;28;20036;-70
2022/06/28 09:16:24;;;;;;;1.40;1.00;;;23.00;58.80;;;;;;20952187;28;20036;-71
2022/06/28 09:26:24;;;;;;;1.48;1.17;;;23.00;58.20;;;;;;20938490;28;20044;-70
2022/06/28 09:36:25;;;;;;;2.35;1.05;;;23.00;57.60;;;;;;20926462;28;20077;-71
2022/06/28 09:46:27;;;;;;;3.28;0.90;;;23.00;57.00;;;;;;20944275;28;20036;-74
2022/06/28 09:56:28;;;;;;;2.40;0.77;;;23.00;56.40;;;;;;20927998;28;20032;-74
2022/06/28 10:06:28;;;;;;;2.35;0.70;;;23.00;55.80;;;;;;20950354;28;20037;-71
2022/06/28 10:16:46;;;;;;;2.88;1.20;;;23.00;55.50;;;;;;20933408;28;20032;-69
2022/06/28 10:27:12;;;;;;;1.50;1.00;;;23.00;55.10;;;;;;20919722;28;20052;-69
2022/06/28 10:37:13;;;;;;;3.42;0.85;;;23.00;54.80;;;;;;20965902;28;20529;-70
2022/06/28 10:47:15;;;;;;;2.83;1.00;;;23.00;54.70;;;;;;20961886;28;20048;-75
2022/06/28 10:57:26;;;;;;;0.95;0.80;;;23.00;54.40;;;;;;20946703;28;20376;-72
2022/06/28 11:07:27;;;;;;;2.28;0.75;;;23.00;54.70;;;;;;20972511;28;20668;-71
2022/06/28 11:17:34;;;;;;;3.40;1.00;;;23.00;54.90;;;;;;20927006;28;20021;-71
2022/06/28 11:27:35;;;;;;;3.08;1.13;;;23.00;54.90;;;;;;20957970;28;20094;-73
2022/06/28 11:37:52;;;;;;;4.00;1.10;;;23.00;55.60;;;;;;20961178;28;20024;-73
2022/06/28 11:47:53;;;;;;;3.45;0.93;;;23.10;55.70;;;;;;20972654;28;20295;-75
2022/06/28 11:58:10;;;;;;;2.42;0.85;;;23.10;56.50;;;;;;20929520;28;20024;-74
2022/06/28 12:08:11;;;;;;;2.50;1.42;;;23.10;56.30;;;;;;20935239;28;20036;-74
2022/06/28 12:18:12;;;;;;;0.50;0.50;;;23.10;55.50;;;;;;20953860;28;20115;-73
2022/06/28 12:28:12;;;;;;;1.42;0.82;;;23.10;55.00;;;;;;20952516;28;20123;-72
2022/06/28 12:38:13;;;;;;;0.82;0.63;;;23.10;55.00;;;;;;20937731;28;20417;-73
2022/06/28 12:48:13;;;;;;;5.00;0.75;;;23.10;55.00;;;;;;20953501;28;20367;-71
2022/06/28 12:58:14;;;;;;;1.83;0.68;;;23.10;55.00;;;;;;20925253;28;20062;-76
2022/06/28 13:08:14;;;;;;;4.23;1.00;;;23.10;54.90;;;;;;20933184;28;20033;-72
2022/06/28 13:18:16;;;;;;;1.38;0.75;;;23.20;54.60;;;;;;20910587;28;20289;-75
2022/06/28 13:28:16;;;;;;;3.50;0.85;;;23.20;53.60;;;;;;20917205;28;20120;-74
2022/06/28 13:38:17;;;;;;;2.95;0.82;;;23.30;53.60;;;;;;20946863;28;20119;-73
2022/06/28 13:48:18;;;;;;;4.07;0.95;;;23.40;53.60;;;;;;20949858;28;20493;-75
2022/06/28 13:58:19;;;;;;;1.90;0.73;;;23.40;53.00;;;;;;20929593;28;20028;-75
2022/06/28 14:08:20;;;;;;;1.73;0.70;;;23.50;52.70;;;;;;20928103;28;20397;-74
2022/06/28 14:18:21;;;;;;;4.97;0.82;;;23.50;52.60;;;;;;20952101;28;20036;-79
2022/06/28 14:28:22;;;;;;;3.42;0.90;;;23.50;52.70;;;;;;20984154;28;20036;-75
2022/06/28 14:38:23;;;;;;;1.40;0.80;;;23.50;52.90;;;;;;20971408;28;20032;-78
2022/06/28 14:48:24;;;;;;;2.92;0.90;;;23.50;52.70;;;;;;20947635;28;20071;-74
2022/06/28 14:58:26;;;;;;;4.47;1.25;;;23.50;52.60;;;;;;20963247;28;20036;-76
2022/06/28 15:08:27;;;;;;;2.63;1.30;;;23.70;52.60;;;;;;20957541;28;20379;-80
2022/06/28 15:18:27;;;;;;;10.15;1.80;;;23.80;52.10;;;;;;20935260;28;20024;-82
2022/06/28 15:38:47;;;;;;;10.10;5.45;;;24.10;52.20;;;;;;20977113;28;20428;-73
2022/06/28 15:48:47;;;;;;;8.17;3.90;;;24.20;52.50;;;;;;20941773;28;20035;-75
2022/06/28 15:58:48;;;;;;;6.75;2.88;;;24.30;51.50;;;;;;20919352;28;20117;-73
2022/06/28 16:08:48;;;;;;;8.15;2.60;;;24.40;50.70;;;;;;20928608;28;20113;-71
2022/06/28 16:18:49;;;;;;;6.55;2.13;;;24.40;49.80;;;;;;20918494;28;20486;-74
2022/06/28 16:28:50;;;;;;;3.35;1.70;;;24.40;49.50;;;;;;20933187;28;20126;-79
2022/06/28 16:38:50;;;;;;;1.98;1.38;;;24.40;49.10;;;;;;20926287;28;20028;-82
2022/06/28 16:48:51;;;;;;;4.30;1.63;;;24.50;48.80;;;;;;20939929;28;20122;-75
2022/06/28 16:58:52;;;;;;;5.28;1.30;;;24.50;48.60;;;;;;20953736;28;20021;-76
2022/06/28 17:08:52;;;;;;;3.60;1.73;;;24.50;48.20;;;;;;20928082;28;20032;-75
2022/06/28 17:18:53;;;;;;;2.67;1.08;;;24.60;47.90;;;;;;20925726;28;20291;-77
2022/06/28 17:28:55;;;;;;;1.85;0.70;;;24.70;47.40;;;;;;20934665;28;20543;-76
2022/06/28 17:38:57;;;;;;;0.90;0.60;;;24.60;47.10;;;;;;20949047;28;20044;-76
2022/06/28 17:48:58;;;;;;;2.22;0.85;;;24.60;48.00;;;;;;20957764;28;20036;-75
2022/06/28 17:58:58;;;;;;;2.28;0.80;;;24.60;47.40;;;;;;20935665;28;20040;-76
2022/06/28 18:08:59;;;;;;;2.42;0.70;;;24.70;47.40;;;;;;20932052;28;20111;-75
2022/06/28 18:18:59;;;;;;;2.45;0.88;;;24.70;47.20;;;;;;20950492;28;20128;-76
2022/06/28 18:29:00;;;;;;;1.08;0.80;;;24.70;47.20;;;;;;20982711;28;20158;-76
2022/06/28 18:39:00;;;;;;;1.95;0.80;;;24.60;47.80;;;;;;20929803;28;20024;-76
2022/06/28 18:49:02;;;;;;;0.57;0.50;;;24.50;48.40;;;;;;20945530;28;20826;-76
2022/06/28 18:59:03;;;;;;;2.33;0.77;;;24.40;48.50;;;;;;20944447;28;20120;-76
2022/06/28 19:09:03;;;;;;;2.33;0.68;;;24.30;48.70;;;;;;20960527;28;20469;-75
2022/06/28 19:19:04;;;;;;;1.63;0.70;;;24.30;49.10;;;;;;20946066;28;20078;-76
2022/06/28 19:29:05;;;;;;;4.65;0.80;;;24.10;49.30;;;;;;20974781;28;20310;-75
2022/06/28 19:39:06;;;;;;;2.13;0.93;;;24.10;49.50;;;;;;20927785;28;20051;-75
2022/06/28 19:49:07;;;;;;;2.08;0.88;;;24.00;49.70;;;;;;20959059;28;20098;-75
2022/06/28 19:59:07;;;;;;;0.93;0.70;;;24.00;49.50;;;;;;20974902;28;20032;-76
2022/06/28 20:09:08;;;;;;;4.22;1.02;;;24.00;49.70;;;;;;20939261;28;20436;-76
2022/06/28 20:19:09;;;;;;;1.27;0.70;;;24.00;50.30;;;;;;20932652;28;20051;-79
2022/06/28 20:29:10;;;;;;;6.00;1.00;;;23.90;50.60;;;;;;20954319;28;20047;-78
2022/06/28 20:39:11;;;;;;;2.35;0.90;;;23.80;50.80;;;;;;20970435;28;20705;-76
2022/06/28 20:49:12;;;;;;;6.25;1.25;;;23.70;50.50;;;;;;20937466;28;20029;-75
2022/06/28 20:59:13;;;;;;;2.65;0.93;;;23.70;50.50;;;;;;20947822;28;20769;-76
2022/06/28 21:09:14;;;;;;;2.35;1.20;;;23.60;50.50;;;;;;20952533;28;20509;-76
2022/06/28 21:19:14;;;;;;;2.17;1.10;;;23.60;50.30;;;;;;20940880;28;20043;-76
2022/06/28 21:29:15;;;;;;;3.40;1.67;;;23.50;50.10;;;;;;20949339;28;20047;-77
2022/06/28 21:39:15;;;;;;;1.00;0.85;;;23.50;50.10;;;;;;20952920;28;20025;-76
2022/06/28 21:49:16;;;;;;;1.90;1.25;;;23.40;50.20;;;;;;20936249;28;20044;-76
2022/06/28 21:59:16;;;;;;;2.77;1.03;;;23.40;50.40;;;;;;20949990;28;20116;-76
2022/06/28 22:09:17;;;;;;;2.08;0.75;;;23.30;50.40;;;;;;20949774;28;20294;-76
2022/06/28 22:19:18;;;;;;;2.22;0.82;;;23.20;50.20;;;;;;20935644;28;20033;-75
2022/06/28 22:29:19;;;;;;;1.90;1.00;;;23.20;50.20;;;;;;20949742;28;20130;-76
2022/06/28 22:39:19;;;;;;;1.38;0.70;;;23.20;50.30;;;;;;20924968;28;20698;-76
2022/06/28 22:49:20;;;;;;;3.85;0.80;;;23.10;50.20;;;;;;20965377;28;20036;-76
2022/06/28 22:59:21;;;;;;;3.83;1.10;;;23.00;50.10;;;;;;20946317;28;20461;-76
2022/06/28 23:09:21;;;;;;;3.33;0.77;;;23.00;50.00;;;;;;20938741;28;20068;-77
2022/06/28 23:19:22;;;;;;;1.67;1.08;;;22.90;50.00;;;;;;20924839;28;20037;-76
2022/06/28 23:29:23;;;;;;;2.38;1.02;;;22.90;50.10;;;;;;20925341;28;20086;-76
2022/06/28 23:39:23;;;;;;;2.80;1.02;;;22.90;50.10;;;;;;20929491;28;20127;-76
2022/06/28 23:49:24;;;;;;;2.15;1.17;;;22.80;50.20;;;;;;20943388;28;20090;-76
2022/06/28 23:59:25;;;;;;;2.42;1.10;;;22.80;50.20;;;;;;20958497;28;20025;-77
